CheckWX is a tool to help pilots better visualize weather data.  It is not intended as a substitute for an official pre-flight weather briefing.

09:00:47 UTC

KJWG METAR
Watonga Regional Airport
Watonga, Oklahoma, USA
Current

26 mins ago

KJWG 310835Z AUTO 14008KT 10SM CLR 18/13 A3017 RMK AO2 T01760127
Observed
May-31 @ 08:35 UTC
Wind
  • 140° at 8 KTS
Visibility
Flight Rules
VFR
Cloud Levels
  • Clear skies
Temperature
18°C / 64°F
Dewpoint
13°C / 55°F
Humidity
73%
Altimeter
30.17" Hg
Pressure
1021.72 hPa
Previous

46 mins ago

KJWG 310815Z AUTO 14008KT 10SM CLR 18/13 A3018 RMK AO2 T01810127
Observed
May-31 @ 08:15 UTC
Wind
  • 140° at 8 KTS
Visibility
Flight Rules
VFR
Cloud Levels
  • Clear skies
Temperature
18°C / 64°F
Dewpoint
13°C / 55°F
Humidity
73%
Altimeter
30.18" Hg
Pressure
1022.02 hPa
Previous

1 hour ago

KJWG 310755Z AUTO 15007KT 10SM CLR 18/13 A3018 RMK AO2 T01820130
Observed
May-31 @ 07:55 UTC
Wind
  • 150° at 7 KTS
Visibility
Flight Rules
VFR
Cloud Levels
  • Clear skies
Temperature
18°C / 64°F
Dewpoint
13°C / 55°F
Humidity
73%
Altimeter
30.18" Hg
Pressure
1022.02 hPa